Terminal Aerodrome Forecast
Issued by NWS Cleveland, OH

Home | Current Version | Previous Version | Graphics & Text | Print | Product List | Glossary On
Versions: 1 2 3 4 5 6 7 8 9 10 11 12 13 14 15 16 17 18 19
000
FTUS41 KCLE 192300
TAFTOL
TAF
KTOL 192330Z 2000/2024 20005KT P6SM SCT150 OVC200
     FM200600 22008KT P6SM SCT040 OVC100
     FM201600 24012G20KT 5SM -SHRA BKN025 OVC040=

USA.gov is the U.S. government's official web portal to all federal, state and local government web resources and services.